sensor_id;sensor_type;location;lat;lon;timestamp;P1;durP1;ratioP1;P2;durP2;ratioP2
22172;SDS011;11252;50.596;17.648;2023-04-25T00:01:24;5.63;;;2.20;;
22172;SDS011;11252;50.596;17.648;2023-04-25T00:03:52;5.90;;;2.80;;
22172;SDS011;11252;50.596;17.648;2023-04-25T00:06:19;4.10;;;2.23;;
22172;SDS011;11252;50.596;17.648;2023-04-25T00:08:47;3.40;;;1.80;;
22172;SDS011;11252;50.596;17.648;2023-04-25T00:11:15;4.40;;;2.73;;
22172;SDS011;11252;50.596;17.648;2023-04-25T00:13:42;6.80;;;3.37;;
22172;SDS011;11252;50.596;17.648;2023-04-25T00:16:09;7.80;;;3.50;;
22172;SDS011;11252;50.596;17.648;2023-04-25T00:18:37;5.17;;;3.20;;
22172;SDS011;11252;50.596;17.648;2023-04-25T00:21:05;5.97;;;3.00;;
22172;SDS011;11252;50.596;17.648;2023-04-25T00:23:33;6.40;;;3.17;;
22172;SDS011;11252;50.596;17.648;2023-04-25T00:26:02;2.33;;;1.73;;
22172;SDS011;11252;50.596;17.648;2023-04-25T00:28:29;3.87;;;1.70;;
22172;SDS011;11252;50.596;17.648;2023-04-25T00:30:56;2.27;;;1.70;;
22172;SDS011;11252;50.596;17.648;2023-04-25T00:33:24;2.60;;;1.37;;
22172;SDS011;11252;50.596;17.648;2023-04-25T00:35:51;1.43;;;1.33;;
22172;SDS011;11252;50.596;17.648;2023-04-25T00:38:18;1.60;;;1.10;;
22172;SDS011;11252;50.596;17.648;2023-04-25T00:40:48;1.57;;;1.10;;
22172;SDS011;11252;50.596;17.648;2023-04-25T00:43:16;2.77;;;1.40;;
22172;SDS011;11252;50.596;17.648;2023-04-25T00:45:43;1.40;;;1.20;;
22172;SDS011;11252;50.596;17.648;2023-04-25T00:48:14;1.00;;;0.90;;
22172;SDS011;11252;50.596;17.648;2023-04-25T00:50:41;1.40;;;1.30;;
22172;SDS011;11252;50.596;17.648;2023-04-25T00:53:11;1.37;;;1.20;;
22172;SDS011;11252;50.596;17.648;2023-04-25T00:55:39;1.53;;;1.43;;
22172;SDS011;11252;50.596;17.648;2023-04-25T00:58:06;3.00;;;1.30;;
22172;SDS011;11252;50.596;17.648;2023-04-25T01:00:33;2.77;;;1.20;;
22172;SDS011;11252;50.596;17.648;2023-04-25T01:03:02;1.33;;;1.20;;
22172;SDS011;11252;50.596;17.648;2023-04-25T01:05:31;1.50;;;1.40;;
22172;SDS011;11252;50.596;17.648;2023-04-25T01:07:58;1.60;;;1.10;;
22172;SDS011;11252;50.596;17.648;2023-04-25T01:10:26;1.60;;;1.23;;
22172;SDS011;11252;50.596;17.648;2023-04-25T01:12:53;1.93;;;1.30;;
22172;SDS011;11252;50.596;17.648;2023-04-25T01:15:21;4.40;;;1.17;;
22172;SDS011;11252;50.596;17.648;2023-04-25T01:17:48;1.77;;;1.30;;
22172;SDS011;11252;50.596;17.648;2023-04-25T01:20:16;1.30;;;1.20;;
22172;SDS011;11252;50.596;17.648;2023-04-25T01:22:43;2.47;;;1.43;;
22172;SDS011;11252;50.596;17.648;2023-04-25T01:25:11;1.83;;;1.73;;
22172;SDS011;11252;50.596;17.648;2023-04-25T01:27:38;1.60;;;1.50;;
22172;SDS011;11252;50.596;17.648;2023-04-25T01:30:06;1.53;;;1.43;;
22172;SDS011;11252;50.596;17.648;2023-04-25T01:32:34;4.43;;;1.83;;
22172;SDS011;11252;50.596;17.648;2023-04-25T01:35:06;2.37;;;1.80;;
22172;SDS011;11252;50.596;17.648;2023-04-25T01:37:39;3.23;;;1.80;;
22172;SDS011;11252;50.596;17.648;2023-04-25T01:40:08;3.73;;;2.03;;
22172;SDS011;11252;50.596;17.648;2023-04-25T01:42:37;3.47;;;1.87;;
22172;SDS011;11252;50.596;17.648;2023-04-25T01:45:07;3.37;;;2.53;;
22172;SDS011;11252;50.596;17.648;2023-04-25T01:47:35;3.03;;;2.07;;
22172;SDS011;11252;50.596;17.648;2023-04-25T01:50:02;3.93;;;2.20;;
22172;SDS011;11252;50.596;17.648;2023-04-25T01:52:31;2.97;;;2.27;;
22172;SDS011;11252;50.596;17.648;2023-04-25T01:54:59;4.60;;;1.83;;
22172;SDS011;11252;50.596;17.648;2023-04-25T01:57:27;4.60;;;2.27;;
22172;SDS011;11252;50.596;17.648;2023-04-25T01:59:59;2.47;;;2.20;;
22172;SDS011;11252;50.596;17.648;2023-04-25T02:02:28;2.27;;;1.90;;
22172;SDS011;11252;50.596;17.648;2023-04-25T02:04:55;2.20;;;2.00;;
22172;SDS011;11252;50.596;17.648;2023-04-25T02:07:23;2.50;;;2.30;;
22172;SDS011;11252;50.596;17.648;2023-04-25T02:09:50;3.00;;;2.80;;
22172;SDS011;11252;50.596;17.648;2023-04-25T02:12:17;2.87;;;2.40;;
22172;SDS011;11252;50.596;17.648;2023-04-25T02:14:44;2.30;;;2.10;;
22172;SDS011;11252;50.596;17.648;2023-04-25T02:17:11;2.20;;;2.00;;
22172;SDS011;11252;50.596;17.648;2023-04-25T02:19:40;2.83;;;2.17;;
22172;SDS011;11252;50.596;17.648;2023-04-25T02:22:07;2.07;;;1.87;;
22172;SDS011;11252;50.596;17.648;2023-04-25T02:24:34;2.00;;;1.90;;
22172;SDS011;11252;50.596;17.648;2023-04-25T02:27:01;3.60;;;2.30;;
22172;SDS011;11252;50.596;17.648;2023-04-25T02:29:29;5.93;;;2.20;;
22172;SDS011;11252;50.596;17.648;2023-04-25T02:31:56;2.40;;;2.20;;
22172;SDS011;11252;50.596;17.648;2023-04-25T02:34:24;3.30;;;2.33;;
22172;SDS011;11252;50.596;17.648;2023-04-25T02:36:51;2.90;;;2.13;;
22172;SDS011;11252;50.596;17.648;2023-04-25T02:39:18;2.20;;;2.10;;
22172;SDS011;11252;50.596;17.648;2023-04-25T02:41:46;2.93;;;2.67;;
22172;SDS011;11252;50.596;17.648;2023-04-25T02:44:13;4.80;;;2.60;;
22172;SDS011;11252;50.596;17.648;2023-04-25T02:46:40;3.00;;;2.80;;
22172;SDS011;11252;50.596;17.648;2023-04-25T02:49:07;3.90;;;3.50;;
22172;SDS011;11252;50.596;17.648;2023-04-25T02:51:35;3.70;;;3.40;;
22172;SDS011;11252;50.596;17.648;2023-04-25T02:54:03;4.87;;;4.03;;
22172;SDS011;11252;50.596;17.648;2023-04-25T02:56:31;4.23;;;3.83;;
22172;SDS011;11252;50.596;17.648;2023-04-25T02:58:58;6.37;;;4.40;;
22172;SDS011;11252;50.596;17.648;2023-04-25T03:01:26;6.67;;;3.83;;
22172;SDS011;11252;50.596;17.648;2023-04-25T03:03:53;4.70;;;4.20;;
22172;SDS011;11252;50.596;17.648;2023-04-25T03:06:21;4.97;;;4.47;;
22172;SDS011;11252;50.596;17.648;2023-04-25T03:08:48;5.57;;;4.30;;
22172;SDS011;11252;50.596;17.648;2023-04-25T03:11:16;4.20;;;3.80;;
22172;SDS011;11252;50.596;17.648;2023-04-25T03:13:43;9.20;;;4.87;;
22172;SDS011;11252;50.596;17.648;2023-04-25T03:16:10;6.80;;;4.50;;
22172;SDS011;11252;50.596;17.648;2023-04-25T03:18:38;8.37;;;5.00;;
22172;SDS011;11252;50.596;17.648;2023-04-25T03:21:05;7.40;;;5.10;;
22172;SDS011;11252;50.596;17.648;2023-04-25T03:23:33;6.60;;;4.70;;
22172;SDS011;11252;50.596;17.648;2023-04-25T03:26:00;6.00;;;4.57;;
22172;SDS011;11252;50.596;17.648;2023-04-25T03:28:28;5.10;;;3.97;;
22172;SDS011;11252;50.596;17.648;2023-04-25T03:30:55;4.43;;;4.03;;
22172;SDS011;11252;50.596;17.648;2023-04-25T03:33:23;9.03;;;4.90;;
22172;SDS011;11252;50.596;17.648;2023-04-25T03:35:50;4.87;;;4.33;;
22172;SDS011;11252;50.596;17.648;2023-04-25T03:38:18;6.77;;;4.80;;
22172;SDS011;11252;50.596;17.648;2023-04-25T03:40:45;4.67;;;3.90;;
22172;SDS011;11252;50.596;17.648;2023-04-25T03:43:12;3.97;;;3.57;;
22172;SDS011;11252;50.596;17.648;2023-04-25T03:45:40;4.10;;;3.73;;
22172;SDS011;11252;50.596;17.648;2023-04-25T03:48:07;4.13;;;3.73;;
22172;SDS011;11252;50.596;17.648;2023-04-25T03:50:35;4.67;;;3.70;;
22172;SDS011;11252;50.596;17.648;2023-04-25T03:53:02;5.63;;;3.77;;
22172;SDS011;11252;50.596;17.648;2023-04-25T03:55:30;4.23;;;3.47;;
22172;SDS011;11252;50.596;17.648;2023-04-25T03:57:57;5.63;;;4.33;;
22172;SDS011;11252;50.596;17.648;2023-04-25T04:00:26;6.37;;;4.00;;
22172;SDS011;11252;50.596;17.648;2023-04-25T04:02:53;4.60;;;4.10;;
22172;SDS011;11252;50.596;17.648;2023-04-25T04:05:20;7.93;;;4.70;;
22172;SDS011;11252;50.596;17.648;2023-04-25T04:07:48;12.63;;;6.33;;
22172;SDS011;11252;50.596;17.648;2023-04-25T04:10:16;11.50;;;6.27;;
22172;SDS011;11252;50.596;17.648;2023-04-25T04:12:46;6.50;;;4.30;;
22172;SDS011;11252;50.596;17.648;2023-04-25T04:15:14;6.30;;;4.43;;
22172;SDS011;11252;50.596;17.648;2023-04-25T04:17:41;4.80;;;4.40;;
22172;SDS011;11252;50.596;17.648;2023-04-25T04:20:09;4.47;;;4.07;;
22172;SDS011;11252;50.596;17.648;2023-04-25T04:22:39;5.43;;;4.30;;
22172;SDS011;11252;50.596;17.648;2023-04-25T04:25:06;5.80;;;4.23;;
22172;SDS011;11252;50.596;17.648;2023-04-25T04:27:33;5.43;;;4.07;;
22172;SDS011;11252;50.596;17.648;2023-04-25T04:30:01;3.93;;;3.63;;
22172;SDS011;11252;50.596;17.648;2023-04-25T04:32:29;4.30;;;3.50;;
22172;SDS011;11252;50.596;17.648;2023-04-25T04:34:57;3.67;;;3.33;;
22172;SDS011;11252;50.596;17.648;2023-04-25T04:37:24;3.70;;;3.30;;
22172;SDS011;11252;50.596;17.648;2023-04-25T04:39:51;4.43;;;3.13;;
22172;SDS011;11252;50.596;17.648;2023-04-25T04:42:19;5.20;;;3.27;;
22172;SDS011;11252;50.596;17.648;2023-04-25T04:44:47;3.47;;;3.27;;
22172;SDS011;11252;50.596;17.648;2023-04-25T04:47:15;5.17;;;3.50;;
22172;SDS011;11252;50.596;17.648;2023-04-25T04:49:42;5.40;;;3.17;;
22172;SDS011;11252;50.596;17.648;2023-04-25T04:52:09;6.70;;;3.63;;
22172;SDS011;11252;50.596;17.648;2023-04-25T04:54:36;4.40;;;2.97;;
22172;SDS011;11252;50.596;17.648;2023-04-25T04:57:03;5.10;;;3.50;;
22172;SDS011;11252;50.596;17.648;2023-04-25T04:59:31;3.33;;;3.03;;
22172;SDS011;11252;50.596;17.648;2023-04-25T05:01:58;3.40;;;3.10;;
22172;SDS011;11252;50.596;17.648;2023-04-25T05:04:26;3.63;;;3.27;;
22172;SDS011;11252;50.596;17.648;2023-04-25T05:06:53;3.10;;;2.83;;
22172;SDS011;11252;50.596;17.648;2023-04-25T05:09:20;3.47;;;2.93;;
22172;SDS011;11252;50.596;17.648;2023-04-25T05:11:52;3.20;;;2.90;;
22172;SDS011;11252;50.596;17.648;2023-04-25T05:14:19;4.10;;;3.70;;
22172;SDS011;11252;50.596;17.648;2023-04-25T05:16:48;5.80;;;3.70;;
22172;SDS011;11252;50.596;17.648;2023-04-25T05:19:16;3.37;;;3.07;;
22172;SDS011;11252;50.596;17.648;2023-04-25T05:21:43;3.73;;;3.13;;
22172;SDS011;11252;50.596;17.648;2023-04-25T05:24:10;17.53;;;13.33;;
22172;SDS011;11252;50.596;17.648;2023-04-25T05:26:37;3.93;;;3.63;;
22172;SDS011;11252;50.596;17.648;2023-04-25T05:29:04;8.57;;;7.70;;
22172;SDS011;11252;50.596;17.648;2023-04-25T05:31:32;4.30;;;3.70;;
22172;SDS011;11252;50.596;17.648;2023-04-25T05:34:00;9.97;;;8.80;;
22172;SDS011;11252;50.596;17.648;2023-04-25T05:36:27;5.00;;;2.90;;
22172;SDS011;11252;50.596;17.648;2023-04-25T05:38:54;4.03;;;3.17;;
22172;SDS011;11252;50.596;17.648;2023-04-25T05:41:21;4.00;;;3.30;;
22172;SDS011;11252;50.596;17.648;2023-04-25T05:43:49;3.60;;;3.30;;
22172;SDS011;11252;50.596;17.648;2023-04-25T05:46:17;9.97;;;7.47;;
22172;SDS011;11252;50.596;17.648;2023-04-25T05:48:45;5.43;;;5.00;;
22172;SDS011;11252;50.596;17.648;2023-04-25T05:51:15;4.37;;;3.90;;
22172;SDS011;11252;50.596;17.648;2023-04-25T05:53:45;3.83;;;3.43;;
22172;SDS011;11252;50.596;17.648;2023-04-25T05:56:12;5.53;;;4.10;;
22172;SDS011;11252;50.596;17.648;2023-04-25T05:58:39;4.80;;;3.60;;
22172;SDS011;11252;50.596;17.648;2023-04-25T06:01:08;4.73;;;3.93;;
22172;SDS011;11252;50.596;17.648;2023-04-25T06:03:35;3.97;;;3.57;;
22172;SDS011;11252;50.596;17.648;2023-04-25T06:06:04;6.47;;;3.60;;
22172;SDS011;11252;50.596;17.648;2023-04-25T06:08:32;4.97;;;3.70;;
22172;SDS011;11252;50.596;17.648;2023-04-25T06:10:59;4.77;;;3.63;;
22172;SDS011;11252;50.596;17.648;2023-04-25T06:13:26;10.73;;;4.43;;
22172;SDS011;11252;50.596;17.648;2023-04-25T06:15:53;6.90;;;3.90;;
22172;SDS011;11252;50.596;17.648;2023-04-25T06:18:21;4.93;;;4.30;;
22172;SDS011;11252;50.596;17.648;2023-04-25T06:20:48;6.73;;;4.50;;
22172;SDS011;11252;50.596;17.648;2023-04-25T06:23:15;8.57;;;4.53;;
22172;SDS011;11252;50.596;17.648;2023-04-25T06:25:42;5.27;;;4.20;;
22172;SDS011;11252;50.596;17.648;2023-04-25T06:28:10;11.67;;;5.13;;
22172;SDS011;11252;50.596;17.648;2023-04-25T06:30:37;10.50;;;5.50;;
22172;SDS011;11252;50.596;17.648;2023-04-25T06:33:04;11.67;;;5.87;;
22172;SDS011;11252;50.596;17.648;2023-04-25T06:35:32;8.17;;;5.30;;
22172;SDS011;11252;50.596;17.648;2023-04-25T06:37:59;8.93;;;5.27;;
22172;SDS011;11252;50.596;17.648;2023-04-25T06:40:26;9.63;;;6.13;;
22172;SDS011;11252;50.596;17.648;2023-04-25T06:42:54;24.10;;;8.87;;
22172;SDS011;11252;50.596;17.648;2023-04-25T06:45:21;11.93;;;6.40;;
22172;SDS011;11252;50.596;17.648;2023-04-25T06:47:48;8.10;;;5.30;;
22172;SDS011;11252;50.596;17.648;2023-04-25T06:50:16;18.50;;;6.93;;
22172;SDS011;11252;50.596;17.648;2023-04-25T06:52:43;7.00;;;5.30;;
22172;SDS011;11252;50.596;17.648;2023-04-25T06:55:11;7.30;;;4.93;;
22172;SDS011;11252;50.596;17.648;2023-04-25T06:57:38;15.80;;;5.93;;
22172;SDS011;11252;50.596;17.648;2023-04-25T07:00:05;24.67;;;16.20;;
22172;SDS011;11252;50.596;17.648;2023-04-25T07:02:35;19.77;;;12.93;;
22172;SDS011;11252;50.596;17.648;2023-04-25T07:05:03;10.43;;;6.17;;
22172;SDS011;11252;50.596;17.648;2023-04-25T07:07:31;10.20;;;5.53;;
22172;SDS011;11252;50.596;17.648;2023-04-25T07:09:59;8.90;;;6.10;;
22172;SDS011;11252;50.596;17.648;2023-04-25T07:12:28;11.63;;;5.70;;
22172;SDS011;11252;50.596;17.648;2023-04-25T07:14:55;8.87;;;5.77;;
22172;SDS011;11252;50.596;17.648;2023-04-25T07:17:23;7.33;;;4.50;;
22172;SDS011;11252;50.596;17.648;2023-04-25T07:19:50;11.13;;;4.80;;
22172;SDS011;11252;50.596;17.648;2023-04-25T07:22:18;6.33;;;4.17;;
22172;SDS011;11252;50.596;17.648;2023-04-25T07:24:45;10.10;;;4.20;;
22172;SDS011;11252;50.596;17.648;2023-04-25T07:27:15;6.97;;;4.10;;
22172;SDS011;11252;50.596;17.648;2023-04-25T07:29:42;5.13;;;3.40;;
22172;SDS011;11252;50.596;17.648;2023-04-25T07:32:09;4.60;;;3.37;;
22172;SDS011;11252;50.596;17.648;2023-04-25T07:34:38;7.97;;;4.10;;
22172;SDS011;11252;50.596;17.648;2023-04-25T07:37:06;5.77;;;3.70;;
22172;SDS011;11252;50.596;17.648;2023-04-25T07:39:33;6.90;;;3.90;;
22172;SDS011;11252;50.596;17.648;2023-04-25T07:42:01;7.43;;;3.87;;
22172;SDS011;11252;50.596;17.648;2023-04-25T07:44:30;6.20;;;3.90;;
22172;SDS011;11252;50.596;17.648;2023-04-25T07:46:58;9.13;;;3.97;;
22172;SDS011;11252;50.596;17.648;2023-04-25T07:49:28;8.60;;;4.03;;
22172;SDS011;11252;50.596;17.648;2023-04-25T07:51:55;6.93;;;4.03;;
22172;SDS011;11252;50.596;17.648;2023-04-25T07:54:22;6.40;;;3.93;;
22172;SDS011;11252;50.596;17.648;2023-04-25T07:56:50;6.90;;;4.37;;
22172;SDS011;11252;50.596;17.648;2023-04-25T07:59:18;7.63;;;3.60;;
22172;SDS011;11252;50.596;17.648;2023-04-25T08:01:47;4.67;;;2.77;;
22172;SDS011;11252;50.596;17.648;2023-04-25T08:04:14;3.07;;;2.77;;
22172;SDS011;11252;50.596;17.648;2023-04-25T08:06:42;7.33;;;2.63;;
22172;SDS011;11252;50.596;17.648;2023-04-25T08:09:09;6.07;;;3.00;;
22172;SDS011;11252;50.596;17.648;2023-04-25T08:11:37;5.47;;;3.00;;
22172;SDS011;11252;50.596;17.648;2023-04-25T08:14:04;7.90;;;3.00;;
22172;SDS011;11252;50.596;17.648;2023-04-25T08:16:33;15.37;;;4.73;;
22172;SDS011;11252;50.596;17.648;2023-04-25T08:19:00;15.50;;;6.17;;
22172;SDS011;11252;50.596;17.648;2023-04-25T08:21:29;10.97;;;3.40;;
22172;SDS011;11252;50.596;17.648;2023-04-25T08:23:56;4.53;;;2.60;;
22172;SDS011;11252;50.596;17.648;2023-04-25T08:26:25;7.83;;;3.40;;
22172;SDS011;11252;50.596;17.648;2023-04-25T08:28:52;7.23;;;3.53;;
22172;SDS011;11252;50.596;17.648;2023-04-25T08:31:19;4.03;;;3.33;;
22172;SDS011;11252;50.596;17.648;2023-04-25T08:33:47;7.70;;;4.27;;
22172;SDS011;11252;50.596;17.648;2023-04-25T08:36:15;10.43;;;4.83;;
22172;SDS011;11252;50.596;17.648;2023-04-25T08:39:03;19.83;;;11.27;;
22172;SDS011;11252;50.596;17.648;2023-04-25T08:41:31;12.23;;;9.07;;
22172;SDS011;11252;50.596;17.648;2023-04-25T08:43:58;7.00;;;4.57;;
22172;SDS011;11252;50.596;17.648;2023-04-25T08:46:27;7.07;;;4.27;;
22172;SDS011;11252;50.596;17.648;2023-04-25T08:49:00;5.87;;;3.50;;
22172;SDS011;11252;50.596;17.648;2023-04-25T08:51:30;8.33;;;3.97;;
22172;SDS011;11252;50.596;17.648;2023-04-25T08:54:10;6.27;;;4.17;;
22172;SDS011;11252;50.596;17.648;2023-04-25T08:57:00;7.43;;;4.10;;
22172;SDS011;11252;50.596;17.648;2023-04-25T08:59:31;11.47;;;4.33;;
22172;SDS011;11252;50.596;17.648;2023-04-25T09:02:00;5.43;;;4.13;;
22172;SDS011;11252;50.596;17.648;2023-04-25T09:04:30;4.73;;;4.20;;
22172;SDS011;11252;50.596;17.648;2023-04-25T09:06:58;6.27;;;3.33;;
22172;SDS011;11252;50.596;17.648;2023-04-25T09:09:25;6.27;;;4.23;;
22172;SDS011;11252;50.596;17.648;2023-04-25T09:11:54;6.57;;;4.03;;
22172;SDS011;11252;50.596;17.648;2023-04-25T09:14:22;7.67;;;4.10;;
22172;SDS011;11252;50.596;17.648;2023-04-25T09:19:24;7.47;;;4.53;;
22172;SDS011;11252;50.596;17.648;2023-04-25T09:22:05;8.43;;;4.90;;
22172;SDS011;11252;50.596;17.648;2023-04-25T09:24:37;8.03;;;4.33;;
22172;SDS011;11252;50.596;17.648;2023-04-25T09:27:07;5.50;;;4.23;;
22172;SDS011;11252;50.596;17.648;2023-04-25T09:29:37;6.43;;;4.07;;
22172;SDS011;11252;50.596;17.648;2023-04-25T09:32:23;5.00;;;4.17;;
22172;SDS011;11252;50.596;17.648;2023-04-25T09:34:55;9.43;;;4.77;;
22172;SDS011;11252;50.596;17.648;2023-04-25T09:37:27;4.93;;;3.97;;
22172;SDS011;11252;50.596;17.648;2023-04-25T09:39:59;5.50;;;3.90;;
22172;SDS011;11252;50.596;17.648;2023-04-25T09:42:32;4.40;;;3.83;;
22172;SDS011;11252;50.596;17.648;2023-04-25T09:45:01;6.90;;;4.20;;
22172;SDS011;11252;50.596;17.648;2023-04-25T09:47:30;4.60;;;3.33;;
22172;SDS011;11252;50.596;17.648;2023-04-25T09:49:58;6.07;;;3.77;;
22172;SDS011;11252;50.596;17.648;2023-04-25T09:52:26;6.17;;;4.13;;
22172;SDS011;11252;50.596;17.648;2023-04-25T09:54:56;5.53;;;3.50;;
22172;SDS011;11252;50.596;17.648;2023-04-25T09:57:24;5.77;;;3.60;;
22172;SDS011;11252;50.596;17.648;2023-04-25T09:59:52;4.27;;;3.80;;
22172;SDS011;11252;50.596;17.648;2023-04-25T10:02:25;4.30;;;3.90;;
22172;SDS011;11252;50.596;17.648;2023-04-25T10:04:54;6.13;;;4.43;;
22172;SDS011;11252;50.596;17.648;2023-04-25T10:07:23;8.00;;;4.37;;
22172;SDS011;11252;50.596;17.648;2023-04-25T10:10:02;5.50;;;3.40;;
22172;SDS011;11252;50.596;17.648;2023-04-25T10:12:32;5.47;;;3.87;;
22172;SDS011;11252;50.596;17.648;2023-04-25T10:15:00;6.07;;;3.37;;
22172;SDS011;11252;50.596;17.648;2023-04-25T10:17:29;4.80;;;3.67;;
22172;SDS011;11252;50.596;17.648;2023-04-25T10:19:58;5.93;;;4.17;;
22172;SDS011;11252;50.596;17.648;2023-04-25T10:22:34;4.23;;;3.70;;
22172;SDS011;11252;50.596;17.648;2023-04-25T10:25:03;6.20;;;3.57;;
22172;SDS011;11252;50.596;17.648;2023-04-25T10:27:35;6.53;;;3.37;;
22172;SDS011;11252;50.596;17.648;2023-04-25T10:30:10;4.63;;;3.63;;
22172;SDS011;11252;50.596;17.648;2023-04-25T10:32:42;9.37;;;3.60;;
22172;SDS011;11252;50.596;17.648;2023-04-25T10:35:10;6.60;;;3.73;;
22172;SDS011;11252;50.596;17.648;2023-04-25T10:37:55;5.87;;;3.53;;
22172;SDS011;11252;50.596;17.648;2023-04-25T10:40:31;3.47;;;2.83;;
22172;SDS011;11252;50.596;17.648;2023-04-25T10:46:00;4.03;;;3.20;;
22172;SDS011;11252;50.596;17.648;2023-04-25T10:48:29;4.37;;;3.40;;
22172;SDS011;11252;50.596;17.648;2023-04-25T10:51:07;6.40;;;3.93;;
22172;SDS011;11252;50.596;17.648;2023-04-25T10:53:36;4.20;;;3.20;;
22172;SDS011;11252;50.596;17.648;2023-04-25T10:56:10;7.77;;;4.20;;
22172;SDS011;11252;50.596;17.648;2023-04-25T10:58:46;6.60;;;3.70;;
22172;SDS011;11252;50.596;17.648;2023-04-25T11:01:21;5.57;;;3.40;;
22172;SDS011;11252;50.596;17.648;2023-04-25T11:03:57;12.57;;;3.50;;
22172;SDS011;11252;50.596;17.648;2023-04-25T11:06:29;4.87;;;3.70;;
22172;SDS011;11252;50.596;17.648;2023-04-25T11:09:12;12.50;;;3.77;;
22172;SDS011;11252;50.596;17.648;2023-04-25T11:11:40;5.37;;;3.70;;
22172;SDS011;11252;50.596;17.648;2023-04-25T11:14:07;6.50;;;3.93;;
22172;SDS011;11252;50.596;17.648;2023-04-25T11:16:35;5.77;;;4.10;;
22172;SDS011;11252;50.596;17.648;2023-04-25T11:19:03;5.43;;;4.23;;
22172;SDS011;11252;50.596;17.648;2023-04-25T11:21:30;5.47;;;4.20;;
22172;SDS011;11252;50.596;17.648;2023-04-25T11:23:58;9.30;;;4.33;;
22172;SDS011;11252;50.596;17.648;2023-04-25T11:26:28;8.07;;;5.00;;
22172;SDS011;11252;50.596;17.648;2023-04-25T11:28:57;5.93;;;4.57;;
22172;SDS011;11252;50.596;17.648;2023-04-25T11:31:28;7.33;;;3.70;;
22172;SDS011;11252;50.596;17.648;2023-04-25T11:33:56;5.00;;;3.70;;
22172;SDS011;11252;50.596;17.648;2023-04-25T11:36:29;3.87;;;2.87;;
22172;SDS011;11252;50.596;17.648;2023-04-25T11:38:58;6.93;;;3.83;;
22172;SDS011;11252;50.596;17.648;2023-04-25T11:41:25;6.20;;;3.90;;
22172;SDS011;11252;50.596;17.648;2023-04-25T11:43:53;7.63;;;3.93;;
22172;SDS011;11252;50.596;17.648;2023-04-25T11:46:21;12.13;;;3.70;;
22172;SDS011;11252;50.596;17.648;2023-04-25T11:48:49;3.93;;;3.63;;
22172;SDS011;11252;50.596;17.648;2023-04-25T11:51:17;5.07;;;3.00;;
22172;SDS011;11252;50.596;17.648;2023-04-25T11:53:44;3.67;;;3.10;;
22172;SDS011;11252;50.596;17.648;2023-04-25T11:56:12;8.10;;;3.40;;
22172;SDS011;11252;50.596;17.648;2023-04-25T11:59:00;6.70;;;3.00;;
22172;SDS011;11252;50.596;17.648;2023-04-25T12:01:29;7.53;;;3.63;;
22172;SDS011;11252;50.596;17.648;2023-04-25T12:04:11;4.50;;;2.70;;
22172;SDS011;11252;50.596;17.648;2023-04-25T12:06:44;5.07;;;3.57;;
22172;SDS011;11252;50.596;17.648;2023-04-25T12:09:19;5.07;;;2.70;;
22172;SDS011;11252;50.596;17.648;2023-04-25T12:11:52;3.23;;;2.70;;
22172;SDS011;11252;50.596;17.648;2023-04-25T12:14:29;10.50;;;3.40;;
22172;SDS011;11252;50.596;17.648;2023-04-25T12:16:59;7.40;;;3.73;;
22172;SDS011;11252;50.596;17.648;2023-04-25T12:19:35;7.50;;;3.40;;
22172;SDS011;11252;50.596;17.648;2023-04-25T12:22:23;10.40;;;3.30;;
22172;SDS011;11252;50.596;17.648;2023-04-25T12:24:51;4.90;;;2.80;;
22172;SDS011;11252;50.596;17.648;2023-04-25T12:27:20;3.27;;;2.80;;
22172;SDS011;11252;50.596;17.648;2023-04-25T12:29:52;13.63;;;3.27;;
22172;SDS011;11252;50.596;17.648;2023-04-25T12:32:21;3.93;;;2.30;;
22172;SDS011;11252;50.596;17.648;2023-04-25T12:34:49;4.33;;;2.70;;
22172;SDS011;11252;50.596;17.648;2023-04-25T12:37:17;8.70;;;3.07;;
22172;SDS011;11252;50.596;17.648;2023-04-25T12:39:45;4.37;;;2.63;;
22172;SDS011;11252;50.596;17.648;2023-04-25T12:42:12;6.30;;;4.80;;
22172;SDS011;11252;50.596;17.648;2023-04-25T12:44:39;6.57;;;3.27;;
22172;SDS011;11252;50.596;17.648;2023-04-25T12:47:07;5.07;;;3.27;;
22172;SDS011;11252;50.596;17.648;2023-04-25T12:49:36;5.77;;;2.80;;
22172;SDS011;11252;50.596;17.648;2023-04-25T12:52:07;4.73;;;2.47;;
22172;SDS011;11252;50.596;17.648;2023-04-25T12:54:35;8.73;;;3.27;;
22172;SDS011;11252;50.596;17.648;2023-04-25T12:57:02;4.73;;;3.10;;
22172;SDS011;11252;50.596;17.648;2023-04-25T12:59:29;8.97;;;3.47;;
22172;SDS011;11252;50.596;17.648;2023-04-25T13:01:57;5.13;;;2.67;;
22172;SDS011;11252;50.596;17.648;2023-04-25T13:04:24;6.87;;;2.83;;
22172;SDS011;11252;50.596;17.648;2023-04-25T13:06:52;4.57;;;2.90;;
22172;SDS011;11252;50.596;17.648;2023-04-25T13:09:19;8.23;;;2.77;;
22172;SDS011;11252;50.596;17.648;2023-04-25T13:11:47;4.83;;;3.00;;
22172;SDS011;11252;50.596;17.648;2023-04-25T13:14:15;5.40;;;3.03;;
22172;SDS011;11252;50.596;17.648;2023-04-25T13:16:42;5.37;;;3.00;;
22172;SDS011;11252;50.596;17.648;2023-04-25T13:19:09;10.33;;;3.07;;
22172;SDS011;11252;50.596;17.648;2023-04-25T13:21:38;6.23;;;2.63;;
22172;SDS011;11252;50.596;17.648;2023-04-25T13:24:05;5.20;;;2.77;;
22172;SDS011;11252;50.596;17.648;2023-04-25T13:26:33;5.47;;;2.50;;
22172;SDS011;11252;50.596;17.648;2023-04-25T13:29:00;5.90;;;2.50;;
22172;SDS011;11252;50.596;17.648;2023-04-25T13:31:30;4.90;;;2.90;;
22172;SDS011;11252;50.596;17.648;2023-04-25T13:33:58;3.10;;;2.63;;
22172;SDS011;11252;50.596;17.648;2023-04-25T13:36:25;4.43;;;2.60;;
22172;SDS011;11252;50.596;17.648;2023-04-25T13:38:52;6.43;;;3.60;;
22172;SDS011;11252;50.596;17.648;2023-04-25T13:41:20;3.97;;;2.53;;
22172;SDS011;11252;50.596;17.648;2023-04-25T13:43:49;6.37;;;2.97;;
22172;SDS011;11252;50.596;17.648;2023-04-25T13:46:16;2.73;;;2.30;;
22172;SDS011;11252;50.596;17.648;2023-04-25T13:48:47;10.70;;;3.30;;
22172;SDS011;11252;50.596;17.648;2023-04-25T13:55:34;18.37;;;2.90;;
22172;SDS011;11252;50.596;17.648;2023-04-25T13:58:05;2.73;;;2.37;;
22172;SDS011;11252;50.596;17.648;2023-04-25T14:00:35;3.50;;;1.90;;
22172;SDS011;11252;50.596;17.648;2023-04-25T14:03:06;5.30;;;2.03;;
22172;SDS011;11252;50.596;17.648;2023-04-25T14:05:35;5.10;;;2.17;;
22172;SDS011;11252;50.596;17.648;2023-04-25T14:08:07;4.47;;;3.03;;
22172;SDS011;11252;50.596;17.648;2023-04-25T14:10:36;3.80;;;2.20;;
22172;SDS011;11252;50.596;17.648;2023-04-25T14:13:04;4.63;;;2.30;;
22172;SDS011;11252;50.596;17.648;2023-04-25T14:15:34;3.27;;;2.70;;
22172;SDS011;11252;50.596;17.648;2023-04-25T14:18:01;7.00;;;2.40;;
22172;SDS011;11252;50.596;17.648;2023-04-25T14:20:29;6.40;;;2.30;;
22172;SDS011;11252;50.596;17.648;2023-04-25T14:22:57;3.20;;;1.90;;
22172;SDS011;11252;50.596;17.648;2023-04-25T14:25:27;3.07;;;2.00;;
22172;SDS011;11252;50.596;17.648;2023-04-25T14:27:56;3.87;;;2.03;;
22172;SDS011;11252;50.596;17.648;2023-04-25T14:30:23;2.80;;;1.30;;
22172;SDS011;11252;50.596;17.648;2023-04-25T14:32:51;2.67;;;1.63;;
22172;SDS011;11252;50.596;17.648;2023-04-25T14:35:18;9.67;;;2.80;;
22172;SDS011;11252;50.596;17.648;2023-04-25T14:37:45;3.70;;;1.80;;
22172;SDS011;11252;50.596;17.648;2023-04-25T14:40:12;4.23;;;2.13;;
22172;SDS011;11252;50.596;17.648;2023-04-25T14:42:42;8.23;;;2.13;;
22172;SDS011;11252;50.596;17.648;2023-04-25T14:45:09;3.27;;;1.90;;
22172;SDS011;11252;50.596;17.648;2023-04-25T14:47:37;5.93;;;1.60;;
22172;SDS011;11252;50.596;17.648;2023-04-25T14:50:05;4.20;;;1.80;;
22172;SDS011;11252;50.596;17.648;2023-04-25T14:52:33;11.37;;;2.67;;